Arlington, Kentucky
Current Conditions -  °F | °C
As of 1:15 PM on Tuesday 21 Oct 2014 (Local Time) from KCIR Reporting Station
Clear Clear  
Wind Chill: 74°   Ceiling: Unl
Heat Index: 74°   Visibility: 10mi
Dew Point: 44°   Wind: 12mph
Humidity: 34%   Direction: 300°WNW
Pressure: 30.08"   Gusts: 18mph
Location:  36.79°N, 89.01°W
Report Text: KCIR 211815Z AUTO 30010G16KT 10SM CLR 23/07 A3008 RMK AO2 P0001 T02340067
Loading
Personal Weather Stations






























Interactive Weather Map
Tropical Storm Tracking
New forecast layout! Learn more

10-Day Weather Forecast

Advertisements
Track Severe Weather on mobile